createdAt,value
2017-09-19T00:00:58.729Z,100382.94
2017-09-19T00:03:26.122Z,100380.09
2017-09-19T00:05:53.514Z,100378.05
2017-09-19T00:08:20.915Z,100381.59
2017-09-19T00:10:48.306Z,100373.14
2017-09-19T00:13:15.810Z,100386.31
2017-09-19T00:15:43.201Z,100383.55
2017-09-19T00:18:10.599Z,100383.61
2017-09-19T00:20:37.998Z,100384.92
2017-09-19T00:23:05.390Z,100391.73
2017-09-19T00:25:32.805Z,100385.70
2017-09-19T00:28:00.183Z,100381.65
2017-09-19T00:30:27.583Z,100378.17
2017-09-19T00:32:54.983Z,100384.27
2017-09-19T00:35:22.378Z,100379.52
2017-09-19T00:37:49.926Z,100379.75
2017-09-19T00:40:17.312Z,100383.77
2017-09-19T00:42:44.714Z,100377.67
2017-09-19T00:45:12.105Z,100379.72
2017-09-19T00:47:39.506Z,100372.83
2017-09-19T00:50:07.453Z,100372.49
2017-09-19T00:52:34.824Z,100371.48
2017-09-19T00:55:02.219Z,100376.70
2017-09-19T00:57:29.619Z,100374.31
2017-09-19T00:59:57.007Z,100375.45
2017-09-19T01:02:24.434Z,100365.87
2017-09-19T01:04:51.839Z,100369.20
2017-09-19T01:07:19.230Z,100368.28
2017-09-19T01:09:46.639Z,100368.25
2017-09-19T01:12:14.039Z,100369.00
2017-09-19T01:14:41.582Z,100372.51
2017-09-19T01:17:08.973Z,100366.20
2017-09-19T01:19:36.377Z,100368.25
2017-09-19T01:22:03.782Z,100365.87
2017-09-19T01:24:31.187Z,100368.22
2017-09-19T01:26:58.730Z,100362.78
2017-09-19T01:29:26.126Z,100360.73
2017-09-19T01:31:53.518Z,100361.86
2017-09-19T01:34:20.927Z,100357.38
2017-09-19T01:36:48.322Z,100363.47
2017-09-19T01:39:15.746Z,100358.66
2017-09-19T01:41:43.159Z,100365.70
2017-09-19T01:44:10.545Z,100358.18
2017-09-19T01:46:37.950Z,100361.45
2017-09-19T01:49:05.346Z,100356.63
2017-09-19T01:51:32.785Z,100361.86
2017-09-19T01:54:00.181Z,100357.59
2017-09-19T01:56:27.586Z,100357.08
2017-09-19T01:58:54.988Z,100353.94
2017-09-19T02:01:22.383Z,100361.96
2017-09-19T02:03:49.787Z,100356.61
2017-09-19T02:06:17.188Z,100355.27
2017-09-19T02:08:44.587Z,100358.78
2017-09-19T02:11:11.989Z,100357.62
2017-09-19T02:13:39.374Z,100357.59
2017-09-19T02:16:06.770Z,100358.92
2017-09-19T02:18:34.166Z,100354.58
2017-09-19T02:21:01.563Z,100357.38
2017-09-19T02:23:28.954Z,100360.94
2017-09-19T02:25:56.510Z,100361.80
2017-09-19T02:28:23.902Z,100361.33
2017-09-19T02:30:51.295Z,100363.41
2017-09-19T02:33:18.833Z,100361.05
2017-09-19T02:35:46.229Z,100362.84
2017-09-19T02:38:13.619Z,100357.39
2017-09-19T02:40:41.173Z,100359.06
2017-09-19T02:43:08.559Z,100358.02
2017-09-19T02:45:35.954Z,100355.17
2017-09-19T02:48:03.498Z,100356.00
2017-09-19T02:50:30.894Z,100358.41
2017-09-19T02:52:58.291Z,100356.18
2017-09-19T02:55:25.697Z,100362.42
2017-09-19T02:57:53.085Z,100356.13
2017-09-19T03:00:20.478Z,100357.13
2017-09-19T03:02:47.906Z,100355.02
2017-09-19T03:05:15.301Z,100355.52
2017-09-19T03:07:42.698Z,100359.33
2017-09-19T03:10:10.106Z,100355.91
2017-09-19T03:12:37.508Z,100349.88
2017-09-19T03:15:04.943Z,100353.56
2017-09-19T03:17:32.333Z,100358.61
2017-09-19T03:19:59.728Z,100355.19
2017-09-19T03:22:27.127Z,100356.32
2017-09-19T03:24:54.522Z,100357.69
2017-09-19T03:27:22.026Z,100352.84
2017-09-19T03:29:49.418Z,100358.95
2017-09-19T03:32:16.806Z,100357.47
2017-09-19T03:34:44.205Z,100355.97
2017-09-19T03:37:11.608Z,100355.44
2017-09-19T03:39:39.046Z,100356.77
2017-09-19T03:42:06.437Z,100353.77
2017-09-19T03:44:33.834Z,100346.57
2017-09-19T03:47:01.226Z,100353.77
2017-09-19T03:49:28.619Z,100351.59
2017-09-19T03:51:56.039Z,100359.20
2017-09-19T03:54:23.426Z,100360.54
2017-09-19T03:56:50.822Z,100363.55
2017-09-19T03:59:18.674Z,100350.03
2017-09-19T04:01:46.070Z,100356.42
2017-09-19T04:04:13.478Z,100355.14
2017-09-19T04:06:40.866Z,100363.67
2017-09-19T04:09:08.265Z,100357.98
2017-09-19T04:11:35.663Z,100364.11
2017-09-19T04:14:03.054Z,100365.69
2017-09-19T04:16:30.582Z,100363.15
2017-09-19T04:18:57.979Z,100363.27
2017-09-19T04:21:25.386Z,100367.70
2017-09-19T04:23:52.778Z,100367.53
2017-09-19T04:26:20.174Z,100370.08
2017-09-19T04:28:47.717Z,100365.01
2017-09-19T04:31:15.123Z,100370.33
2017-09-19T04:33:42.523Z,100364.77
2017-09-19T04:36:09.922Z,100366.19
2017-09-19T04:38:37.319Z,100372.55
2017-09-19T04:41:04.751Z,100372.08
2017-09-19T04:43:32.142Z,100374.12
2017-09-19T04:45:59.538Z,100382.78
2017-09-19T04:48:26.945Z,100377.02
2017-09-19T04:50:54.353Z,100379.72
2017-09-19T04:53:21.921Z,100379.41
2017-09-19T04:55:49.306Z,100386.81
2017-09-19T04:58:16.702Z,100389.20
2017-09-19T05:00:44.117Z,100388.75
2017-09-19T05:03:11.514Z,100396.80
2017-09-19T05:05:38.917Z,100393.92
2017-09-19T05:08:06.312Z,100398.27
2017-09-19T05:10:33.862Z,100405.52
2017-09-19T05:13:01.354Z,100404.69
2017-09-19T05:15:28.747Z,100400.20
2017-09-19T05:17:56.142Z,100410.78
2017-09-19T05:20:23.542Z,100411.08
2017-09-19T05:22:50.941Z,100403.50
2017-09-19T05:25:18.338Z,100409.75
2017-09-19T05:27:45.729Z,100409.20
2017-09-19T05:30:13.137Z,100412.48
2017-09-19T05:32:40.531Z,100409.68
2017-09-19T05:35:08.075Z,100410.88
2017-09-19T05:37:35.473Z,100413.16
2017-09-19T05:40:02.869Z,100409.23
2017-09-19T05:42:30.263Z,100409.59
2017-09-19T05:44:57.675Z,100410.48
2017-09-19T05:47:25.234Z,100407.63
2017-09-19T05:49:52.636Z,100412.56
2017-09-19T05:52:20.023Z,100416.91
2017-09-19T05:54:47.444Z,100412.69
2017-09-19T05:57:14.842Z,100415.00
2017-09-19T05:59:42.349Z,100423.06
2017-09-19T06:02:09.743Z,100427.75
2017-09-19T06:04:37.134Z,100426.35
2017-09-19T06:07:04.556Z,100432.95
2017-09-19T06:09:38.649Z,100432.87
2017-09-19T06:12:06.100Z,100434.92
2017-09-19T06:14:33.490Z,100430.61
2017-09-19T06:17:00.882Z,100435.36
2017-09-19T06:19:28.286Z,100437.73
2017-09-19T06:21:55.697Z,100435.36
2017-09-19T06:24:23.570Z,100438.83
2017-09-19T06:26:50.967Z,100436.91
2017-09-19T06:29:18.362Z,100442.17
2017-09-19T06:31:45.762Z,100440.12
2017-09-19T06:34:13.153Z,100442.47
2017-09-19T06:36:40.658Z,100447.37
2017-09-19T06:39:08.046Z,100446.98
2017-09-19T06:41:35.442Z,100448.50
2017-09-19T06:44:02.843Z,100448.95
2017-09-19T06:46:30.234Z,100450.77
2017-09-19T06:48:57.737Z,100452.20
2017-09-19T06:51:25.128Z,100449.61
2017-09-19T06:53:52.518Z,100453.94
2017-09-19T06:56:19.923Z,100454.09
2017-09-19T06:58:47.318Z,100460.42
2017-09-19T07:01:14.833Z,100460.13
2017-09-19T07:03:42.218Z,100462.27
2017-09-19T07:06:09.611Z,100463.13
2017-09-19T07:08:37.023Z,100465.56
2017-09-19T07:11:04.407Z,100472.85
2017-09-19T07:13:31.840Z,100473.89
2017-09-19T07:15:59.227Z,100474.09
2017-09-19T07:18:26.622Z,100481.95
2017-09-19T07:20:54.028Z,100480.97
2017-09-19T07:23:21.417Z,100492.27
2017-09-19T07:25:48.849Z,100482.16
2017-09-19T07:28:16.256Z,100493.60
2017-09-19T07:30:43.646Z,100499.16
2017-09-19T07:33:11.045Z,100492.22
2017-09-19T07:35:38.435Z,100500.73
2017-09-19T07:38:05.850Z,100498.14
2017-09-19T07:40:33.246Z,100501.72
2017-09-19T07:43:00.638Z,100495.21
2017-09-19T07:45:28.041Z,100502.48
2017-09-19T07:47:55.430Z,100505.33
2017-09-19T07:50:22.846Z,100509.97
2017-09-19T07:52:50.238Z,100517.11
2017-09-19T07:55:17.625Z,100513.89
2017-09-19T07:57:45.031Z,100517.84
2017-09-19T08:00:12.422Z,100517.24
2017-09-19T08:02:40.127Z,100518.81
2017-09-19T08:05:07.516Z,100520.45
2017-09-19T08:07:34.913Z,100525.34
2017-09-19T08:10:02.307Z,100527.52
2017-09-19T08:12:29.697Z,100525.28
2017-09-19T08:14:57.246Z,100527.03
2017-09-19T08:17:24.642Z,100532.23
2017-09-19T08:19:52.038Z,100529.04
2017-09-19T08:22:19.434Z,100533.73
2017-09-19T08:24:46.830Z,100533.14
2017-09-19T08:27:14.379Z,100531.63
2017-09-19T08:29:41.770Z,100536.38
2017-09-19T08:32:09.166Z,100541.45
2017-09-19T08:34:36.562Z,100546.91
2017-09-19T08:37:03.967Z,100545.05
2017-09-19T08:39:31.521Z,100548.31
2017-09-19T08:41:58.910Z,100544.16
2017-09-19T08:44:26.303Z,100543.03
2017-09-19T08:46:53.702Z,100547.05
2017-09-19T08:49:21.098Z,100550.23
2017-09-19T08:51:48.521Z,100551.25
2017-09-19T08:54:15.925Z,100555.02
2017-09-19T08:56:43.322Z,100556.61
2017-09-19T08:59:10.724Z,100557.06
2017-09-19T09:01:38.119Z,100552.80
2017-09-19T09:04:05.614Z,100554.97
2017-09-19T09:06:33.023Z,100558.31
2017-09-19T09:09:00.415Z,100563.71
2017-09-19T09:11:27.809Z,100568.44
2017-09-19T09:13:55.202Z,100567.66
2017-09-19T09:16:23.028Z,100571.79
2017-09-19T09:18:50.414Z,100559.94
2017-09-19T09:21:17.815Z,100566.02
2017-09-19T09:23:45.222Z,100564.61
2017-09-19T09:26:12.610Z,100568.66
2017-09-19T09:28:40.165Z,100565.23
2017-09-19T09:31:07.562Z,100572.66
2017-09-19T09:33:34.954Z,100576.86
2017-09-19T09:36:02.350Z,100578.88
2017-09-19T09:38:29.759Z,100580.47
2017-09-19T09:40:57.301Z,100583.03
2017-09-19T09:43:24.690Z,100578.79
2017-09-19T09:45:52.078Z,100580.16
2017-09-19T09:48:19.490Z,100583.24
2017-09-19T09:50:46.877Z,100582.09
2017-09-19T09:53:14.422Z,100589.19
2017-09-19T09:55:41.824Z,100585.42
2017-09-19T09:58:09.214Z,100588.78
2017-09-19T10:00:36.616Z,100588.41
2017-09-19T10:03:04.009Z,100587.79
2017-09-19T10:05:31.510Z,100584.06
2017-09-19T10:07:58.902Z,100587.70
2017-09-19T10:10:26.306Z,100587.52
2017-09-19T10:12:53.687Z,100591.48
2017-09-19T10:15:21.082Z,100587.36
2017-09-19T10:17:48.503Z,100589.06
2017-09-19T10:20:15.894Z,100589.45
2017-09-19T10:22:43.285Z,100590.25
2017-09-19T10:25:10.682Z,100588.73
2017-09-19T10:27:38.075Z,100589.06
2017-09-19T10:30:05.578Z,100586.92
2017-09-19T10:32:32.975Z,100592.69
2017-09-19T10:35:00.390Z,100585.52
2017-09-19T10:37:27.780Z,100585.61
2017-09-19T10:39:55.174Z,100588.98
2017-09-19T10:42:23.010Z,100598.86
2017-09-19T10:44:50.403Z,100604.88
2017-09-19T10:47:17.794Z,100603.70
2017-09-19T10:49:45.195Z,100605.41
2017-09-19T10:52:12.597Z,100607.97
2017-09-19T10:54:40.301Z,100611.87
2017-09-19T10:57:07.699Z,100611.02
2017-09-19T10:59:35.102Z,100615.72
2017-09-19T11:02:02.497Z,100608.17
2017-09-19T11:04:29.895Z,100606.81
2017-09-19T11:06:57.322Z,100609.36
2017-09-19T11:09:24.722Z,100605.61
2017-09-19T11:11:52.110Z,100611.03
2017-09-19T11:14:19.514Z,100613.87
2017-09-19T11:16:46.913Z,100610.81
2017-09-19T11:19:14.317Z,100612.31
2017-09-19T11:21:41.710Z,100619.83
2017-09-19T11:24:09.107Z,100618.85
2017-09-19T11:26:36.497Z,100616.34
2017-09-19T11:29:03.893Z,100619.53
2017-09-19T11:31:31.395Z,100617.27
2017-09-19T11:33:58.799Z,100611.91
2017-09-19T11:36:26.186Z,100605.39
2017-09-19T11:38:53.595Z,100610.12
2017-09-19T11:41:20.979Z,100614.14
2017-09-19T11:43:48.390Z,100606.82
2017-09-19T11:46:15.785Z,100613.52
2017-09-19T11:48:43.173Z,100619.49
2017-09-19T11:51:10.576Z,100618.90
2017-09-19T11:53:37.966Z,100618.66
2017-09-19T11:56:05.513Z,100620.65
2017-09-19T11:58:32.905Z,100620.61
2017-09-19T12:01:00.303Z,100621.16
2017-09-19T12:03:27.702Z,100616.97
2017-09-19T12:05:55.090Z,100623.72
2017-09-19T12:08:22.790Z,100628.20
2017-09-19T12:10:50.177Z,100621.86
2017-09-19T12:13:17.565Z,100628.35
2017-09-19T12:15:44.961Z,100632.03
2017-09-19T12:18:12.358Z,100633.91
2017-09-19T12:20:39.914Z,100633.25
2017-09-19T12:23:07.298Z,100634.73
2017-09-19T12:25:34.689Z,100631.95
2017-09-19T12:28:02.091Z,100637.33
2017-09-19T12:30:29.482Z,100632.69
2017-09-19T12:32:57.186Z,100633.91
2017-09-19T12:35:24.582Z,100633.41
2017-09-19T12:37:51.974Z,100635.70
2017-09-19T12:40:19.375Z,100636.56
2017-09-19T12:42:46.775Z,100634.03
2017-09-19T12:45:14.446Z,100635.55
2017-09-19T12:47:41.840Z,100636.93
2017-09-19T12:50:09.253Z,100636.30
2017-09-19T12:52:36.657Z,100635.94
2017-09-19T12:55:04.061Z,100639.63
2017-09-19T12:57:31.459Z,100635.81
2017-09-19T12:59:58.854Z,100637.19
2017-09-19T13:02:26.259Z,100642.20
2017-09-19T13:04:53.659Z,100636.61
2017-09-19T13:07:21.067Z,100634.16
2017-09-19T13:09:48.472Z,100634.49
2017-09-19T13:12:15.866Z,100640.27
2017-09-19T13:14:43.273Z,100638.02
2017-09-19T13:17:10.674Z,100642.56
2017-09-19T13:19:38.545Z,100635.25
2017-09-19T13:22:05.955Z,100636.93
2017-09-19T13:24:33.351Z,100633.33
2017-09-19T13:27:00.763Z,100638.05
2017-09-19T13:29:28.158Z,100632.24
2017-09-19T13:32:07.387Z,100632.70
2017-09-19T13:34:34.823Z,100637.02
2017-09-19T13:37:02.227Z,100635.19
2017-09-19T13:39:29.623Z,100642.22
2017-09-19T13:41:57.043Z,100648.59
2017-09-19T13:44:24.439Z,100641.42
2017-09-19T13:46:51.839Z,100647.19
2017-09-19T13:49:19.249Z,100645.62
2017-09-19T13:51:46.643Z,100637.81
2017-09-19T13:54:14.046Z,100643.32
2017-09-19T13:56:41.443Z,100649.94
2017-09-19T13:59:08.852Z,100644.27
2017-09-19T14:01:36.251Z,100641.91
2017-09-19T14:04:03.803Z,100646.38
2017-09-19T14:06:31.203Z,100642.42
2017-09-19T14:08:58.594Z,100644.07
2017-09-19T14:11:25.994Z,100645.20
2017-09-19T14:13:53.392Z,100649.56
2017-09-19T14:16:20.811Z,100644.30
2017-09-19T14:18:48.206Z,100646.28
2017-09-19T14:21:15.603Z,100640.14
2017-09-19T14:23:43.011Z,100638.19
2017-09-19T14:26:10.408Z,100637.49
2017-09-19T14:28:37.910Z,100632.36
2017-09-19T14:31:05.308Z,100632.89
2017-09-19T14:33:32.701Z,100633.79
2017-09-19T14:36:00.098Z,100629.17
2017-09-19T14:38:27.498Z,100633.87
2017-09-19T14:40:55.085Z,100635.11
2017-09-19T14:43:22.482Z,100632.59
2017-09-19T14:45:49.923Z,100640.56
2017-09-19T14:48:17.326Z,100643.84
2017-09-19T14:50:44.726Z,100642.41
2017-09-19T14:53:12.135Z,100639.75
2017-09-19T14:55:39.526Z,100639.05
2017-09-19T14:58:06.939Z,100640.09
2017-09-19T15:00:34.326Z,100646.28
2017-09-19T15:03:01.729Z,100637.02
2017-09-19T15:05:29.151Z,100642.18
2017-09-19T15:07:56.542Z,100649.72
2017-09-19T15:10:24.800Z,100651.92
2017-09-19T15:12:52.203Z,100660.75
2017-09-19T15:15:19.603Z,100661.52
2017-09-19T15:17:47.031Z,100658.53
2017-09-19T15:20:14.436Z,100664.97
2017-09-19T15:22:41.832Z,100667.36
2017-09-19T15:25:09.235Z,100669.09
2017-09-19T15:27:37.640Z,100668.50
2017-09-19T15:30:05.042Z,100675.27
2017-09-19T15:32:32.443Z,100676.81
2017-09-19T15:34:59.986Z,100676.84
2017-09-19T15:37:27.531Z,100672.51
2017-09-19T15:39:54.935Z,100676.25
2017-09-19T15:42:22.327Z,100681.45
2017-09-19T15:44:49.727Z,100681.75
2017-09-19T15:47:17.147Z,100686.84
2017-09-19T15:49:44.535Z,100689.47
2017-09-19T15:52:11.926Z,100677.20
2017-09-19T15:54:39.358Z,100685.00
2017-09-19T15:57:07.083Z,100687.10
2017-09-19T15:59:35.500Z,100692.08
2017-09-19T16:02:02.886Z,100689.27
2017-09-19T16:04:30.300Z,100692.06
2017-09-19T16:06:57.939Z,100692.52
2017-09-19T16:09:25.334Z,100692.08
2017-09-19T16:11:52.730Z,100694.45
2017-09-19T16:14:20.140Z,100698.16
2017-09-19T16:16:47.559Z,100698.97
2017-09-19T16:19:15.591Z,100701.55
2017-09-19T16:21:42.982Z,100711.55
2017-09-19T16:24:10.755Z,100707.93
2017-09-19T16:26:38.149Z,100711.73
2017-09-19T16:29:05.561Z,100719.26
2017-09-19T16:31:32.958Z,100719.13
2017-09-19T16:34:00.358Z,100716.55
2017-09-19T16:36:27.920Z,100724.05
2017-09-19T16:38:55.326Z,100728.47
2017-09-19T16:41:22.815Z,100739.44
2017-09-19T16:43:51.234Z,100735.53
2017-09-19T16:46:18.631Z,100737.15
2017-09-19T16:48:46.828Z,100737.88
2017-09-19T16:51:14.223Z,100737.45
2017-09-19T16:53:41.636Z,100744.75
2017-09-19T16:56:09.417Z,100740.56
2017-09-19T16:58:36.798Z,100743.80
2017-09-19T17:01:04.202Z,100745.98
2017-09-19T17:03:31.623Z,100745.83
2017-09-19T17:05:59.025Z,100742.59
2017-09-19T17:08:26.467Z,100749.09
2017-09-19T17:10:53.867Z,100752.13
2017-09-19T17:13:21.435Z,100751.99
2017-09-19T17:15:48.826Z,100746.41
2017-09-19T17:18:16.463Z,100757.67
2017-09-19T17:20:43.846Z,100750.53
2017-09-19T17:23:11.241Z,100754.59
2017-09-19T17:25:38.815Z,100754.63
2017-09-19T17:28:06.210Z,100760.51
2017-09-19T17:30:33.607Z,100764.12
2017-09-19T17:33:01.015Z,100763.47
2017-09-19T17:35:28.415Z,100762.43
2017-09-19T17:37:56.019Z,100766.56
2017-09-19T17:40:23.413Z,100771.80
2017-09-19T17:42:50.806Z,100777.27
2017-09-19T17:45:18.208Z,100777.59
2017-09-19T17:47:45.625Z,100776.27
2017-09-19T17:50:13.346Z,100786.67
2017-09-19T17:52:40.747Z,100790.53
2017-09-19T17:55:08.855Z,100795.23
2017-09-19T17:57:37.179Z,100789.70
2017-09-19T18:00:04.619Z,100792.13
2017-09-19T18:02:32.271Z,100798.77
2017-09-19T18:04:59.715Z,100799.81
2017-09-19T18:07:27.227Z,100799.53
2017-09-19T18:09:54.688Z,100797.69
2017-09-19T18:12:22.083Z,100797.09
2017-09-19T18:14:49.490Z,100800.71
2017-09-19T18:17:16.891Z,100806.42
2017-09-19T18:19:44.318Z,100805.72
2017-09-19T18:22:11.766Z,100808.84
2017-09-19T18:24:39.159Z,100811.61
2017-09-19T18:27:06.830Z,100820.79
2017-09-19T18:29:34.272Z,100821.64
2017-09-19T18:32:01.684Z,100822.40
2017-09-19T18:34:29.092Z,100827.84
2017-09-19T18:36:56.615Z,100833.84
2017-09-19T18:39:24.138Z,100832.88
2017-09-19T18:41:51.556Z,100829.09
2017-09-19T18:44:18.951Z,100835.97
2017-09-19T18:46:46.367Z,100837.61
2017-09-19T18:49:13.789Z,100842.05
2017-09-19T18:51:41.376Z,100843.91
2017-09-19T18:54:08.779Z,100837.84
2017-09-19T18:56:36.171Z,100843.91
2017-09-19T18:59:03.586Z,100842.34
2017-09-19T19:01:30.982Z,100847.39
2017-09-19T19:03:58.550Z,100850.78
2017-09-19T19:06:25.955Z,100852.23
2017-09-19T19:08:53.355Z,100844.94
2017-09-19T19:11:20.767Z,100846.46
2017-09-19T19:13:48.162Z,100846.87
2017-09-19T19:16:15.727Z,100845.84
2017-09-19T19:18:43.126Z,100847.78
2017-09-19T19:21:10.522Z,100848.11
2017-09-19T19:23:37.929Z,100845.52
2017-09-19T19:26:05.326Z,100848.61
2017-09-19T19:28:32.883Z,100852.19
2017-09-19T19:31:00.272Z,100853.82
2017-09-19T19:33:27.667Z,100852.81
2017-09-19T19:35:55.074Z,100865.30
2017-09-19T19:38:22.468Z,100873.53
2017-09-19T19:40:49.903Z,100870.30
2017-09-19T19:43:17.300Z,100873.69
2017-09-19T19:45:44.704Z,100877.56
2017-09-19T19:48:12.110Z,100876.20
2017-09-19T19:50:39.506Z,100876.11
2017-09-19T19:53:07.060Z,100878.16
2017-09-19T19:55:34.454Z,100873.20
2017-09-19T19:58:01.852Z,100874.02
2017-09-19T20:00:29.252Z,100871.54
2017-09-19T20:02:56.646Z,100870.33
2017-09-19T20:05:24.050Z,100873.71
2017-09-19T20:07:51.452Z,100872.45
2017-09-19T20:10:18.847Z,100864.93
2017-09-19T20:12:46.250Z,100874.58
2017-09-19T20:15:13.651Z,100871.86
2017-09-19T20:17:41.128Z,100869.11
2017-09-19T20:20:08.528Z,100871.56
2017-09-19T20:22:35.924Z,100875.50
2017-09-19T20:25:03.323Z,100877.63
2017-09-19T20:27:30.730Z,100878.69
2017-09-19T20:29:58.478Z,100881.78
2017-09-19T20:32:25.867Z,100884.45
2017-09-19T20:34:53.279Z,100899.66
2017-09-19T20:37:20.683Z,100896.59
2017-09-19T20:39:48.071Z,100895.70
2017-09-19T20:42:15.474Z,100898.14
2017-09-19T20:44:42.871Z,100902.97
2017-09-19T20:47:10.267Z,100899.82
2017-09-19T20:49:37.672Z,100907.75
2017-09-19T20:52:05.074Z,100897.80
2017-09-19T20:54:32.471Z,100897.82
2017-09-19T20:56:59.879Z,100903.16
2017-09-19T20:59:27.275Z,100904.38
2017-09-19T21:01:55.180Z,100899.95
2017-09-19T21:04:28.085Z,100899.94
2017-09-19T21:07:01.035Z,100891.73
2017-09-19T21:09:33.912Z,100893.58
2017-09-19T21:12:06.912Z,100893.48
2017-09-19T21:14:40.007Z,100899.42
2017-09-19T21:17:13.311Z,100889.77
2017-09-19T21:19:40.139Z,100897.87
2017-09-19T21:22:07.547Z,100889.64
2017-09-19T21:24:34.958Z,100889.13
2017-09-19T21:27:02.351Z,100890.96
2017-09-19T21:29:29.746Z,100889.83
2017-09-19T21:31:57.304Z,100887.87
2017-09-19T21:34:24.700Z,100893.31
2017-09-19T21:36:52.091Z,100890.94
2017-09-19T21:39:19.494Z,100893.50
2017-09-19T21:41:46.900Z,100895.73
2017-09-19T21:44:14.328Z,100891.69
2017-09-19T21:46:41.727Z,100881.41
2017-09-19T21:49:09.122Z,100878.28
2017-09-19T21:51:36.525Z,100884.16
2017-09-19T21:54:03.918Z,100888.26
2017-09-19T21:56:31.340Z,100885.88
2017-09-19T21:58:58.741Z,100885.67
2017-09-19T22:01:26.132Z,100890.19
2017-09-19T22:03:53.568Z,100884.86
2017-09-19T22:06:20.964Z,100888.16
2017-09-19T22:08:48.385Z,100893.16
2017-09-19T22:11:15.778Z,100890.91
2017-09-19T22:13:43.170Z,100885.88
2017-09-19T22:16:10.570Z,100890.61
2017-09-19T22:18:37.991Z,100888.86
2017-09-19T22:21:05.400Z,100897.30
2017-09-19T22:23:32.799Z,100898.05
2017-09-19T22:26:00.196Z,100900.03
2017-09-19T22:28:27.610Z,100893.80
2017-09-19T22:30:55.016Z,100895.35
2017-09-19T22:33:22.446Z,100897.13
2017-09-19T22:35:49.838Z,100896.84
2017-09-19T22:38:17.255Z,100901.86
2017-09-19T22:40:44.665Z,100903.56
2017-09-19T22:43:12.335Z,100906.63
2017-09-19T22:45:39.886Z,100903.55
2017-09-19T22:48:07.288Z,100903.36
2017-09-19T22:50:34.694Z,100910.12
2017-09-19T22:53:02.102Z,100899.63
2017-09-19T22:55:29.501Z,100897.57
2017-09-19T22:57:56.915Z,100898.30
2017-09-19T23:00:24.328Z,100900.88
2017-09-19T23:02:51.731Z,100904.91
2017-09-19T23:05:19.143Z,100902.69
2017-09-19T23:07:46.538Z,100903.17
2017-09-19T23:10:13.963Z,100903.22
2017-09-19T23:12:41.364Z,100903.44
2017-09-19T23:15:09.076Z,100903.23
2017-09-19T23:17:36.482Z,100903.57
2017-09-19T23:20:03.878Z,100909.29
2017-09-19T23:22:31.435Z,100903.34
2017-09-19T23:24:58.834Z,100902.55
2017-09-19T23:27:26.231Z,100900.56
2017-09-19T23:29:53.658Z,100899.74
2017-09-19T23:32:21.039Z,100897.57
2017-09-19T23:34:48.707Z,100904.87
2017-09-19T23:37:16.139Z,100895.80
2017-09-19T23:39:43.527Z,100898.95
2017-09-19T23:42:10.930Z,100893.28
2017-09-19T23:44:38.327Z,100891.44
2017-09-19T23:47:05.760Z,100893.69
2017-09-19T23:49:33.155Z,100893.69
2017-09-19T23:52:00.563Z,100886.20
2017-09-19T23:54:27.966Z,100890.30
2017-09-19T23:56:55.359Z,100891.94
2017-09-19T23:59:22.779Z,100894.42
